sensor_id;sensor_type;location;lat;lon;timestamp;temperature;humidity
74822;DHT22;63353;48.702;8.884;2023-04-24T00:00:36;9.30;99.90
74822;DHT22;63353;48.702;8.884;2023-04-24T00:03:18;9.30;99.90
74822;DHT22;63353;48.702;8.884;2023-04-24T00:05:49;9.40;99.90
74822;DHT22;63353;48.702;8.884;2023-04-24T00:08:15;9.30;99.90
74822;DHT22;63353;48.702;8.884;2023-04-24T00:10:44;9.20;99.90
74822;DHT22;63353;48.702;8.884;2023-04-24T00:13:09;9.40;99.90
74822;DHT22;63353;48.702;8.884;2023-04-24T00:15:35;9.30;99.90
74822;DHT22;63353;48.702;8.884;2023-04-24T00:18:01;9.30;99.90
74822;DHT22;63353;48.702;8.884;2023-04-24T00:20:36;9.30;99.90
74822;DHT22;63353;48.702;8.884;2023-04-24T00:23:08;9.30;99.90
74822;DHT22;63353;48.702;8.884;2023-04-24T00:25:36;9.40;99.90
74822;DHT22;63353;48.702;8.884;2023-04-24T00:28:02;9.50;99.90
74822;DHT22;63353;48.702;8.884;2023-04-24T00:30:30;9.40;99.90
74822;DHT22;63353;48.702;8.884;2023-04-24T00:32:59;9.40;99.90
74822;DHT22;63353;48.702;8.884;2023-04-24T00:35:25;9.30;99.90
74822;DHT22;63353;48.702;8.884;2023-04-24T00:37:50;9.30;99.90
74822;DHT22;63353;48.702;8.884;2023-04-24T00:40:16;9.30;99.90
74822;DHT22;63353;48.702;8.884;2023-04-24T00:42:41;9.30;99.90
74822;DHT22;63353;48.702;8.884;2023-04-24T00:45:08;9.30;99.90
74822;DHT22;63353;48.702;8.884;2023-04-24T00:47:41;9.30;99.90
74822;DHT22;63353;48.702;8.884;2023-04-24T00:50:08;9.30;99.90
74822;DHT22;63353;48.702;8.884;2023-04-24T00:52:34;9.20;99.90
74822;DHT22;63353;48.702;8.884;2023-04-24T00:55:03;9.20;99.90
74822;DHT22;63353;48.702;8.884;2023-04-24T00:57:29;9.20;99.90
74822;DHT22;63353;48.702;8.884;2023-04-24T01:00:00;9.10;99.90
74822;DHT22;63353;48.702;8.884;2023-04-24T01:02:26;9.00;99.90
74822;DHT22;63353;48.702;8.884;2023-04-24T01:04:55;9.00;99.90
74822;DHT22;63353;48.702;8.884;2023-04-24T01:07:28;9.00;99.90
74822;DHT22;63353;48.702;8.884;2023-04-24T01:10:00;9.10;99.90
74822;DHT22;63353;48.702;8.884;2023-04-24T01:12:32;9.10;99.90
74822;DHT22;63353;48.702;8.884;2023-04-24T01:14:58;9.10;99.90
74822;DHT22;63353;48.702;8.884;2023-04-24T01:17:23;9.00;99.90
74822;DHT22;63353;48.702;8.884;2023-04-24T01:19:55;8.90;99.90
74822;DHT22;63353;48.702;8.884;2023-04-24T01:22:26;8.90;99.90
74822;DHT22;63353;48.702;8.884;2023-04-24T01:24:52;8.80;99.90
74822;DHT22;63353;48.702;8.884;2023-04-24T01:27:19;8.80;99.90
74822;DHT22;63353;48.702;8.884;2023-04-24T01:29:51;8.80;99.90
74822;DHT22;63353;48.702;8.884;2023-04-24T01:32:17;8.70;99.90
74822;DHT22;63353;48.702;8.884;2023-04-24T01:34:50;8.70;99.90
74822;DHT22;63353;48.702;8.884;2023-04-24T01:37:16;8.70;99.90
74822;DHT22;63353;48.702;8.884;2023-04-24T01:39:43;8.70;99.90
74822;DHT22;63353;48.702;8.884;2023-04-24T01:42:16;8.70;99.90
74822;DHT22;63353;48.702;8.884;2023-04-24T01:44:44;8.70;99.90
74822;DHT22;63353;48.702;8.884;2023-04-24T01:47:13;8.60;99.90
74822;DHT22;63353;48.702;8.884;2023-04-24T01:49:39;8.70;99.90
74822;DHT22;63353;48.702;8.884;2023-04-24T01:52:05;8.70;99.90
74822;DHT22;63353;48.702;8.884;2023-04-24T01:54:30;8.90;99.90
74822;DHT22;63353;48.702;8.884;2023-04-24T01:57:14;8.90;99.90
74822;DHT22;63353;48.702;8.884;2023-04-24T01:59:46;8.80;99.90
74822;DHT22;63353;48.702;8.884;2023-04-24T02:02:14;8.70;99.90
74822;DHT22;63353;48.702;8.884;2023-04-24T02:04:40;8.70;99.90
74822;DHT22;63353;48.702;8.884;2023-04-24T02:07:06;8.70;99.90
74822;DHT22;63353;48.702;8.884;2023-04-24T02:09:31;8.70;99.90
74822;DHT22;63353;48.702;8.884;2023-04-24T02:12:03;8.60;99.90
74822;DHT22;63353;48.702;8.884;2023-04-24T02:14:34;8.60;99.90
74822;DHT22;63353;48.702;8.884;2023-04-24T02:17:00;8.60;99.90
74822;DHT22;63353;48.702;8.884;2023-04-24T02:19:32;8.60;99.90
74822;DHT22;63353;48.702;8.884;2023-04-24T02:21:58;8.60;99.90
74822;DHT22;63353;48.702;8.884;2023-04-24T02:24:23;8.60;99.90
74822;DHT22;63353;48.702;8.884;2023-04-24T02:26:49;8.60;99.90
74822;DHT22;63353;48.702;8.884;2023-04-24T02:29:15;8.60;99.90
74822;DHT22;63353;48.702;8.884;2023-04-24T02:31:41;8.60;99.90
74822;DHT22;63353;48.702;8.884;2023-04-24T02:34:06;8.70;99.90
74822;DHT22;63353;48.702;8.884;2023-04-24T02:36:32;8.70;99.90
74822;DHT22;63353;48.702;8.884;2023-04-24T02:38:58;8.60;99.90
74822;DHT22;63353;48.702;8.884;2023-04-24T02:41:23;8.70;99.90
74822;DHT22;63353;48.702;8.884;2023-04-24T02:43:49;8.80;99.90
74822;DHT22;63353;48.702;8.884;2023-04-24T02:46:15;8.80;99.90
74822;DHT22;63353;48.702;8.884;2023-04-24T02:48:46;8.80;99.90
74822;DHT22;63353;48.702;8.884;2023-04-24T02:51:12;8.80;99.90
74822;DHT22;63353;48.702;8.884;2023-04-24T02:53:38;8.70;99.90
74822;DHT22;63353;48.702;8.884;2023-04-24T02:56:06;8.60;99.90
74822;DHT22;63353;48.702;8.884;2023-04-24T02:58:32;8.40;99.90
74822;DHT22;63353;48.702;8.884;2023-04-24T03:00:58;8.40;99.90
74822;DHT22;63353;48.702;8.884;2023-04-24T03:03:23;8.30;99.90
74822;DHT22;63353;48.702;8.884;2023-04-24T03:05:52;8.20;99.90
74822;DHT22;63353;48.702;8.884;2023-04-24T03:08:18;8.10;99.90
74822;DHT22;63353;48.702;8.884;2023-04-24T03:10:44;8.10;99.90
74822;DHT22;63353;48.702;8.884;2023-04-24T03:13:12;8.10;99.90
74822;DHT22;63353;48.702;8.884;2023-04-24T03:15:44;8.10;99.90
74822;DHT22;63353;48.702;8.884;2023-04-24T03:18:10;8.10;99.90
74822;DHT22;63353;48.702;8.884;2023-04-24T03:20:36;8.10;99.90
74822;DHT22;63353;48.702;8.884;2023-04-24T03:23:14;8.20;99.90
74822;DHT22;63353;48.702;8.884;2023-04-24T03:25:43;8.10;99.90
74822;DHT22;63353;48.702;8.884;2023-04-24T03:28:09;8.10;99.90
74822;DHT22;63353;48.702;8.884;2023-04-24T03:30:37;8.10;99.90
74822;DHT22;63353;48.702;8.884;2023-04-24T03:33:03;8.10;99.90
74822;DHT22;63353;48.702;8.884;2023-04-24T03:35:29;8.00;99.90
74822;DHT22;63353;48.702;8.884;2023-04-24T03:37:55;8.00;99.90
74822;DHT22;63353;48.702;8.884;2023-04-24T03:40:21;7.90;99.90
74822;DHT22;63353;48.702;8.884;2023-04-24T03:42:46;7.90;99.90
74822;DHT22;63353;48.702;8.884;2023-04-24T03:45:12;7.80;99.90
74822;DHT22;63353;48.702;8.884;2023-04-24T03:47:37;7.80;99.90
74822;DHT22;63353;48.702;8.884;2023-04-24T03:50:09;7.80;99.90
74822;DHT22;63353;48.702;8.884;2023-04-24T03:52:35;7.80;99.90
74822;DHT22;63353;48.702;8.884;2023-04-24T03:55:01;7.90;99.90
74822;DHT22;63353;48.702;8.884;2023-04-24T03:57:28;7.90;99.90
74822;DHT22;63353;48.702;8.884;2023-04-24T03:59:53;7.90;99.90
74822;DHT22;63353;48.702;8.884;2023-04-24T04:02:19;8.00;99.90
74822;DHT22;63353;48.702;8.884;2023-04-24T04:04:44;8.10;99.90
74822;DHT22;63353;48.702;8.884;2023-04-24T04:07:11;8.10;99.90
74822;DHT22;63353;48.702;8.884;2023-04-24T04:09:38;8.10;99.90
74822;DHT22;63353;48.702;8.884;2023-04-24T04:12:04;8.10;99.90
74822;DHT22;63353;48.702;8.884;2023-04-24T04:14:29;8.20;99.90
74822;DHT22;63353;48.702;8.884;2023-04-24T04:16:55;8.10;99.90
74822;DHT22;63353;48.702;8.884;2023-04-24T04:19:21;8.00;99.90
74822;DHT22;63353;48.702;8.884;2023-04-24T04:21:46;7.80;99.90
74822;DHT22;63353;48.702;8.884;2023-04-24T04:24:23;7.70;99.90
74822;DHT22;63353;48.702;8.884;2023-04-24T04:26:49;7.60;99.90
74822;DHT22;63353;48.702;8.884;2023-04-24T04:29:16;7.50;99.90
74822;DHT22;63353;48.702;8.884;2023-04-24T04:31:44;7.40;99.90
74822;DHT22;63353;48.702;8.884;2023-04-24T04:34:12;7.30;99.90
74822;DHT22;63353;48.702;8.884;2023-04-24T04:36:40;7.30;99.90
74822;DHT22;63353;48.702;8.884;2023-04-24T04:39:06;7.20;99.90
74822;DHT22;63353;48.702;8.884;2023-04-24T04:41:32;7.20;99.90
74822;DHT22;63353;48.702;8.884;2023-04-24T04:44:03;7.10;99.90
74822;DHT22;63353;48.702;8.884;2023-04-24T04:46:30;7.10;99.90
74822;DHT22;63353;48.702;8.884;2023-04-24T04:48:58;7.00;99.90
74822;DHT22;63353;48.702;8.884;2023-04-24T04:51:24;7.10;99.90
74822;DHT22;63353;48.702;8.884;2023-04-24T04:53:53;7.10;99.90
74822;DHT22;63353;48.702;8.884;2023-04-24T04:56:22;7.00;99.90
74822;DHT22;63353;48.702;8.884;2023-04-24T04:58:47;7.00;99.90
74822;DHT22;63353;48.702;8.884;2023-04-24T05:01:13;7.00;99.90
74822;DHT22;63353;48.702;8.884;2023-04-24T05:03:42;7.00;99.90
74822;DHT22;63353;48.702;8.884;2023-04-24T05:06:13;7.00;99.90
74822;DHT22;63353;48.702;8.884;2023-04-24T05:08:42;6.90;99.90
74822;DHT22;63353;48.702;8.884;2023-04-24T05:11:08;6.90;99.90
74822;DHT22;63353;48.702;8.884;2023-04-24T05:13:36;6.80;99.90
74822;DHT22;63353;48.702;8.884;2023-04-24T05:16:02;6.90;99.90
74822;DHT22;63353;48.702;8.884;2023-04-24T05:18:34;6.90;99.90
74822;DHT22;63353;48.702;8.884;2023-04-24T05:21:02;6.90;99.90
74822;DHT22;63353;48.702;8.884;2023-04-24T05:23:28;7.00;99.90
74822;DHT22;63353;48.702;8.884;2023-04-24T05:25:53;6.90;99.90
74822;DHT22;63353;48.702;8.884;2023-04-24T05:28:19;6.90;99.90
74822;DHT22;63353;48.702;8.884;2023-04-24T05:30:52;6.90;99.90
74822;DHT22;63353;48.702;8.884;2023-04-24T05:33:17;7.00;99.90
74822;DHT22;63353;48.702;8.884;2023-04-24T05:35:46;7.00;99.90
74822;DHT22;63353;48.702;8.884;2023-04-24T05:38:12;7.00;99.90
74822;DHT22;63353;48.702;8.884;2023-04-24T05:40:39;7.00;99.90
74822;DHT22;63353;48.702;8.884;2023-04-24T05:43:04;7.00;99.90
74822;DHT22;63353;48.702;8.884;2023-04-24T05:45:30;7.00;99.90
74822;DHT22;63353;48.702;8.884;2023-04-24T05:48:03;7.00;99.90
74822;DHT22;63353;48.702;8.884;2023-04-24T05:50:31;7.00;99.90
74822;DHT22;63353;48.702;8.884;2023-04-24T05:53:00;7.00;99.90
74822;DHT22;63353;48.702;8.884;2023-04-24T05:55:33;7.20;99.90
74822;DHT22;63353;48.702;8.884;2023-04-24T05:57:59;7.30;99.90
74822;DHT22;63353;48.702;8.884;2023-04-24T06:00:25;7.40;99.90
74822;DHT22;63353;48.702;8.884;2023-04-24T06:02:59;7.60;99.90
74822;DHT22;63353;48.702;8.884;2023-04-24T06:05:24;8.00;99.90
74822;DHT22;63353;48.702;8.884;2023-04-24T06:07:53;8.20;99.90
74822;DHT22;63353;48.702;8.884;2023-04-24T06:10:19;8.30;99.90
74822;DHT22;63353;48.702;8.884;2023-04-24T06:12:54;8.40;99.90
74822;DHT22;63353;48.702;8.884;2023-04-24T06:15:30;8.60;99.90
74822;DHT22;63353;48.702;8.884;2023-04-24T06:17:59;8.80;99.90
74822;DHT22;63353;48.702;8.884;2023-04-24T06:20:25;9.00;99.90
74822;DHT22;63353;48.702;8.884;2023-04-24T06:22:51;9.20;99.90
74822;DHT22;63353;48.702;8.884;2023-04-24T06:25:19;9.50;99.90
74822;DHT22;63353;48.702;8.884;2023-04-24T06:27:55;9.60;99.90
74822;DHT22;63353;48.702;8.884;2023-04-24T06:30:23;9.60;99.90
74822;DHT22;63353;48.702;8.884;2023-04-24T06:32:49;9.70;99.90
74822;DHT22;63353;48.702;8.884;2023-04-24T06:35:15;9.70;99.90
74822;DHT22;63353;48.702;8.884;2023-04-24T06:37:42;9.80;99.90
74822;DHT22;63353;48.702;8.884;2023-04-24T06:40:13;9.80;99.90
74822;DHT22;63353;48.702;8.884;2023-04-24T06:42:48;9.70;99.90
74822;DHT22;63353;48.702;8.884;2023-04-24T06:45:14;9.70;99.90
74822;DHT22;63353;48.702;8.884;2023-04-24T06:47:40;9.70;99.90
74822;DHT22;63353;48.702;8.884;2023-04-24T06:50:06;9.70;99.90
74822;DHT22;63353;48.702;8.884;2023-04-24T06:52:31;9.70;99.90
74822;DHT22;63353;48.702;8.884;2023-04-24T06:55:04;9.70;99.90
74822;DHT22;63353;48.702;8.884;2023-04-24T06:57:30;9.80;99.90
74822;DHT22;63353;48.702;8.884;2023-04-24T06:59:59;9.70;99.90
74822;DHT22;63353;48.702;8.884;2023-04-24T07:02:25;9.50;99.90
74822;DHT22;63353;48.702;8.884;2023-04-24T07:04:57;9.30;99.90
74822;DHT22;63353;48.702;8.884;2023-04-24T07:07:22;9.20;99.90
74822;DHT22;63353;48.702;8.884;2023-04-24T07:09:49;9.10;99.90
74822;DHT22;63353;48.702;8.884;2023-04-24T07:12:22;9.00;99.90
74822;DHT22;63353;48.702;8.884;2023-04-24T07:14:50;9.10;99.90
74822;DHT22;63353;48.702;8.884;2023-04-24T07:17:16;9.40;99.90
74822;DHT22;63353;48.702;8.884;2023-04-24T07:19:42;9.70;99.90
74822;DHT22;63353;48.702;8.884;2023-04-24T07:22:08;9.90;99.90
74822;DHT22;63353;48.702;8.884;2023-04-24T07:24:36;10.00;99.90
74822;DHT22;63353;48.702;8.884;2023-04-24T07:27:15;9.90;99.90
74822;DHT22;63353;48.702;8.884;2023-04-24T07:29:44;9.80;99.90
74822;DHT22;63353;48.702;8.884;2023-04-24T07:32:21;9.80;99.90
74822;DHT22;63353;48.702;8.884;2023-04-24T07:34:47;9.60;99.90
74822;DHT22;63353;48.702;8.884;2023-04-24T07:37:22;9.60;99.90
74822;DHT22;63353;48.702;8.884;2023-04-24T07:39:58;9.60;99.90
74822;DHT22;63353;48.702;8.884;2023-04-24T07:42:29;9.50;99.90
74822;DHT22;63353;48.702;8.884;2023-04-24T07:44:59;9.40;99.90
74822;DHT22;63353;48.702;8.884;2023-04-24T07:47:25;9.20;99.90
74822;DHT22;63353;48.702;8.884;2023-04-24T07:49:53;9.20;99.90
74822;DHT22;63353;48.702;8.884;2023-04-24T07:52:23;9.30;99.90
74822;DHT22;63353;48.702;8.884;2023-04-24T07:54:48;9.40;99.90
74822;DHT22;63353;48.702;8.884;2023-04-24T07:57:21;9.40;99.90
74822;DHT22;63353;48.702;8.884;2023-04-24T07:59:46;9.20;99.90
74822;DHT22;63353;48.702;8.884;2023-04-24T08:02:24;9.40;99.90
74822;DHT22;63353;48.702;8.884;2023-04-24T08:04:55;9.30;99.90
74822;DHT22;63353;48.702;8.884;2023-04-24T08:07:21;9.50;99.90
74822;DHT22;63353;48.702;8.884;2023-04-24T08:09:49;9.50;99.90
74822;DHT22;63353;48.702;8.884;2023-04-24T08:12:18;9.60;99.90
74822;DHT22;63353;48.702;8.884;2023-04-24T08:14:45;9.50;99.90
74822;DHT22;63353;48.702;8.884;2023-04-24T08:17:11;9.70;99.90
74822;DHT22;63353;48.702;8.884;2023-04-24T08:19:40;10.10;99.90
74822;DHT22;63353;48.702;8.884;2023-04-24T08:22:09;10.40;99.90
74822;DHT22;63353;48.702;8.884;2023-04-24T08:24:41;10.50;99.90
74822;DHT22;63353;48.702;8.884;2023-04-24T08:27:07;10.50;99.90
74822;DHT22;63353;48.702;8.884;2023-04-24T08:29:33;10.70;99.90
74822;DHT22;63353;48.702;8.884;2023-04-24T08:32:01;11.10;99.90
74822;DHT22;63353;48.702;8.884;2023-04-24T08:34:30;11.00;99.90
74822;DHT22;63353;48.702;8.884;2023-04-24T08:36:59;10.40;99.90
74822;DHT22;63353;48.702;8.884;2023-04-24T08:39:24;10.10;99.90
74822;DHT22;63353;48.702;8.884;2023-04-24T08:41:54;10.00;99.90
74822;DHT22;63353;48.702;8.884;2023-04-24T08:44:20;10.20;99.90
74822;DHT22;63353;48.702;8.884;2023-04-24T08:46:48;10.20;99.90
74822;DHT22;63353;48.702;8.884;2023-04-24T08:49:24;10.30;99.90
74822;DHT22;63353;48.702;8.884;2023-04-24T08:52:01;10.40;99.90
74822;DHT22;63353;48.702;8.884;2023-04-24T08:54:28;10.40;99.90
74822;DHT22;63353;48.702;8.884;2023-04-24T08:56:59;10.70;99.90
74822;DHT22;63353;48.702;8.884;2023-04-24T08:59:30;10.80;99.90
74822;DHT22;63353;48.702;8.884;2023-04-24T09:02:03;10.70;99.90
74822;DHT22;63353;48.702;8.884;2023-04-24T09:04:30;10.80;99.90
74822;DHT22;63353;48.702;8.884;2023-04-24T09:06:57;11.10;99.90
74822;DHT22;63353;48.702;8.884;2023-04-24T09:09:26;11.40;99.90
74822;DHT22;63353;48.702;8.884;2023-04-24T09:11:55;11.10;99.90
74822;DHT22;63353;48.702;8.884;2023-04-24T09:14:22;10.90;99.90
74822;DHT22;63353;48.702;8.884;2023-04-24T09:16:49;11.00;99.90
74822;DHT22;63353;48.702;8.884;2023-04-24T09:19:24;10.90;99.90
74822;DHT22;63353;48.702;8.884;2023-04-24T09:21:52;11.00;99.90
74822;DHT22;63353;48.702;8.884;2023-04-24T09:24:20;11.10;99.90
74822;DHT22;63353;48.702;8.884;2023-04-24T09:26:49;11.10;99.90
74822;DHT22;63353;48.702;8.884;2023-04-24T09:29:16;11.10;99.90
74822;DHT22;63353;48.702;8.884;2023-04-24T09:31:42;11.30;99.90
74822;DHT22;63353;48.702;8.884;2023-04-24T09:34:08;11.30;99.90
74822;DHT22;63353;48.702;8.884;2023-04-24T09:36:39;11.50;99.90
74822;DHT22;63353;48.702;8.884;2023-04-24T09:39:10;11.70;99.90
74822;DHT22;63353;48.702;8.884;2023-04-24T09:41:48;11.80;99.90
74822;DHT22;63353;48.702;8.884;2023-04-24T09:44:18;12.00;99.90
74822;DHT22;63353;48.702;8.884;2023-04-24T09:46:57;11.40;99.90
74822;DHT22;63353;48.702;8.884;2023-04-24T09:49:27;11.40;99.90
74822;DHT22;63353;48.702;8.884;2023-04-24T09:52:10;11.70;99.90
74822;DHT22;63353;48.702;8.884;2023-04-24T09:54:37;11.30;99.90
74822;DHT22;63353;48.702;8.884;2023-04-24T09:57:03;11.30;99.90
74822;DHT22;63353;48.702;8.884;2023-04-24T09:59:30;11.30;99.90
74822;DHT22;63353;48.702;8.884;2023-04-24T10:01:55;11.60;99.90
74822;DHT22;63353;48.702;8.884;2023-04-24T10:04:26;12.00;99.90
74822;DHT22;63353;48.702;8.884;2023-04-24T10:06:54;12.20;99.90
74822;DHT22;63353;48.702;8.884;2023-04-24T10:09:23;12.50;99.90
74822;DHT22;63353;48.702;8.884;2023-04-24T10:11:50;12.50;99.90
74822;DHT22;63353;48.702;8.884;2023-04-24T10:14:21;12.20;99.90
74822;DHT22;63353;48.702;8.884;2023-04-24T10:16:47;11.80;99.90
74822;DHT22;63353;48.702;8.884;2023-04-24T10:19:14;12.00;99.90
74822;DHT22;63353;48.702;8.884;2023-04-24T10:21:47;11.70;99.90
74822;DHT22;63353;48.702;8.884;2023-04-24T10:24:17;11.10;99.90
74822;DHT22;63353;48.702;8.884;2023-04-24T10:26:44;11.40;99.90
74822;DHT22;63353;48.702;8.884;2023-04-24T10:29:14;11.90;99.90
74822;DHT22;63353;48.702;8.884;2023-04-24T10:32:06;11.90;99.90
74822;DHT22;63353;48.702;8.884;2023-04-24T10:34:32;11.70;99.90
74822;DHT22;63353;48.702;8.884;2023-04-24T10:36:58;12.10;99.90
74822;DHT22;63353;48.702;8.884;2023-04-24T10:39:24;12.70;99.90
74822;DHT22;63353;48.702;8.884;2023-04-24T10:41:53;12.30;99.90
74822;DHT22;63353;48.702;8.884;2023-04-24T10:44:23;11.40;99.90
74822;DHT22;63353;48.702;8.884;2023-04-24T10:46:53;11.20;99.90
74822;DHT22;63353;48.702;8.884;2023-04-24T10:49:28;11.10;99.90
74822;DHT22;63353;48.702;8.884;2023-04-24T10:52:00;11.00;99.90
74822;DHT22;63353;48.702;8.884;2023-04-24T10:54:42;10.50;99.90
74822;DHT22;63353;48.702;8.884;2023-04-24T10:58:03;10.60;99.90
74822;DHT22;63353;48.702;8.884;2023-04-24T11:00:37;10.70;99.90
74822;DHT22;63353;48.702;8.884;2023-04-24T11:03:24;11.00;99.90
74822;DHT22;63353;48.702;8.884;2023-04-24T11:08:36;11.20;99.90
74822;DHT22;63353;48.702;8.884;2023-04-24T11:11:03;11.40;99.90
74822;DHT22;63353;48.702;8.884;2023-04-24T11:27:11;9.60;99.90
74822;DHT22;63353;48.702;8.884;2023-04-24T11:34:47;10.00;99.90
74822;DHT22;63353;48.702;8.884;2023-04-24T11:37:13;10.10;99.90
74822;DHT22;63353;48.702;8.884;2023-04-24T11:39:51;10.50;99.90
74822;DHT22;63353;48.702;8.884;2023-04-24T11:42:17;11.00;99.90
74822;DHT22;63353;48.702;8.884;2023-04-24T11:44:46;11.10;99.90
74822;DHT22;63353;48.702;8.884;2023-04-24T11:47:12;10.90;99.90
74822;DHT22;63353;48.702;8.884;2023-04-24T11:49:38;10.50;99.90
74822;DHT22;63353;48.702;8.884;2023-04-24T11:52:04;10.30;99.90
74822;DHT22;63353;48.702;8.884;2023-04-24T11:54:33;10.10;99.90
74822;DHT22;63353;48.702;8.884;2023-04-24T11:57:08;10.00;99.90
74822;DHT22;63353;48.702;8.884;2023-04-24T11:59:37;10.00;99.90
74822;DHT22;63353;48.702;8.884;2023-04-24T12:02:06;10.20;99.90
74822;DHT22;63353;48.702;8.884;2023-04-24T12:04:41;10.30;99.90
74822;DHT22;63353;48.702;8.884;2023-04-24T12:07:07;10.30;99.90
74822;DHT22;63353;48.702;8.884;2023-04-24T12:12:16;10.50;99.90
74822;DHT22;63353;48.702;8.884;2023-04-24T12:14:50;10.70;99.90
74822;DHT22;63353;48.702;8.884;2023-04-24T12:17:17;10.70;99.90
74822;DHT22;63353;48.702;8.884;2023-04-24T12:19:47;10.80;99.90
74822;DHT22;63353;48.702;8.884;2023-04-24T12:22:14;10.80;99.90
74822;DHT22;63353;48.702;8.884;2023-04-24T12:25:02;10.70;99.90
74822;DHT22;63353;48.702;8.884;2023-04-24T12:27:30;10.80;99.90
74822;DHT22;63353;48.702;8.884;2023-04-24T12:29:58;10.30;99.90
74822;DHT22;63353;48.702;8.884;2023-04-24T12:32:24;10.00;99.90
74822;DHT22;63353;48.702;8.884;2023-04-24T12:34:54;9.90;99.90
74822;DHT22;63353;48.702;8.884;2023-04-24T12:37:20;9.90;99.90
74822;DHT22;63353;48.702;8.884;2023-04-24T12:40:06;9.90;99.90
74822;DHT22;63353;48.702;8.884;2023-04-24T12:42:34;10.00;99.90
74822;DHT22;63353;48.702;8.884;2023-04-24T12:45:03;9.80;99.90
74822;DHT22;63353;48.702;8.884;2023-04-24T12:47:30;9.70;99.90
74822;DHT22;63353;48.702;8.884;2023-04-24T12:49:56;9.70;99.90
74822;DHT22;63353;48.702;8.884;2023-04-24T12:52:26;9.80;99.90
74822;DHT22;63353;48.702;8.884;2023-04-24T12:54:58;10.00;99.90
74822;DHT22;63353;48.702;8.884;2023-04-24T12:57:24;10.20;99.90
74822;DHT22;63353;48.702;8.884;2023-04-24T12:59:51;10.30;99.90
74822;DHT22;63353;48.702;8.884;2023-04-24T13:02:20;10.50;99.90
74822;DHT22;63353;48.702;8.884;2023-04-24T13:04:51;10.60;99.90
74822;DHT22;63353;48.702;8.884;2023-04-24T13:07:20;10.60;99.90
74822;DHT22;63353;48.702;8.884;2023-04-24T13:09:47;10.50;99.90
74822;DHT22;63353;48.702;8.884;2023-04-24T13:12:14;10.30;99.90
74822;DHT22;63353;48.702;8.884;2023-04-24T13:14:43;10.20;99.90
74822;DHT22;63353;48.702;8.884;2023-04-24T13:17:12;10.10;99.90
74822;DHT22;63353;48.702;8.884;2023-04-24T13:19:51;9.90;99.90
74822;DHT22;63353;48.702;8.884;2023-04-24T13:22:17;9.80;99.90
74822;DHT22;63353;48.702;8.884;2023-04-24T13:24:49;9.70;99.90
74822;DHT22;63353;48.702;8.884;2023-04-24T13:27:20;9.50;99.90
74822;DHT22;63353;48.702;8.884;2023-04-24T13:29:46;9.20;99.90
74822;DHT22;63353;48.702;8.884;2023-04-24T13:32:15;9.10;99.90
74822;DHT22;63353;48.702;8.884;2023-04-24T13:34:43;9.20;99.90
74822;DHT22;63353;48.702;8.884;2023-04-24T13:37:21;9.60;99.90
74822;DHT22;63353;48.702;8.884;2023-04-24T13:39:47;9.70;99.90
74822;DHT22;63353;48.702;8.884;2023-04-24T13:42:25;9.80;99.90
74822;DHT22;63353;48.702;8.884;2023-04-24T13:44:53;9.90;99.90
74822;DHT22;63353;48.702;8.884;2023-04-24T13:47:34;10.00;99.90
74822;DHT22;63353;48.702;8.884;2023-04-24T13:50:13;9.90;99.90
74822;DHT22;63353;48.702;8.884;2023-04-24T13:52:45;9.70;99.90
74822;DHT22;63353;48.702;8.884;2023-04-24T13:55:14;9.30;99.90
74822;DHT22;63353;48.702;8.884;2023-04-24T13:57:49;9.20;99.90
74822;DHT22;63353;48.702;8.884;2023-04-24T14:00:18;8.90;99.90
74822;DHT22;63353;48.702;8.884;2023-04-24T14:02:47;8.80;99.90
74822;DHT22;63353;48.702;8.884;2023-04-24T14:05:15;8.60;99.90
74822;DHT22;63353;48.702;8.884;2023-04-24T14:07:41;8.30;99.90
74822;DHT22;63353;48.702;8.884;2023-04-24T14:10:07;8.50;99.90
74822;DHT22;63353;48.702;8.884;2023-04-24T14:12:34;9.30;99.90
74822;DHT22;63353;48.702;8.884;2023-04-24T14:14:59;10.20;99.90
74822;DHT22;63353;48.702;8.884;2023-04-24T14:17:29;11.00;99.90
74822;DHT22;63353;48.702;8.884;2023-04-24T14:19:55;11.10;99.90
74822;DHT22;63353;48.702;8.884;2023-04-24T14:22:22;10.60;99.90
74822;DHT22;63353;48.702;8.884;2023-04-24T14:24:48;10.40;99.90
74822;DHT22;63353;48.702;8.884;2023-04-24T14:27:16;10.30;99.90
74822;DHT22;63353;48.702;8.884;2023-04-24T14:29:42;10.30;99.90
74822;DHT22;63353;48.702;8.884;2023-04-24T14:32:14;10.20;99.90
74822;DHT22;63353;48.702;8.884;2023-04-24T14:34:40;10.40;99.90
74822;DHT22;63353;48.702;8.884;2023-04-24T14:37:07;10.40;99.90
74822;DHT22;63353;48.702;8.884;2023-04-24T14:39:32;10.50;99.90
74822;DHT22;63353;48.702;8.884;2023-04-24T14:42:10;10.40;99.90
74822;DHT22;63353;48.702;8.884;2023-04-24T14:44:36;10.30;99.90
74822;DHT22;63353;48.702;8.884;2023-04-24T14:47:04;10.20;99.90
74822;DHT22;63353;48.702;8.884;2023-04-24T14:49:38;10.10;99.90
74822;DHT22;63353;48.702;8.884;2023-04-24T14:52:07;9.90;99.90
74822;DHT22;63353;48.702;8.884;2023-04-24T14:54:32;9.90;99.90
74822;DHT22;63353;48.702;8.884;2023-04-24T14:57:01;9.90;99.90
74822;DHT22;63353;48.702;8.884;2023-04-24T14:59:27;9.80;99.90
74822;DHT22;63353;48.702;8.884;2023-04-24T15:01:54;9.80;99.90
74822;DHT22;63353;48.702;8.884;2023-04-24T15:04:23;9.80;99.90
74822;DHT22;63353;48.702;8.884;2023-04-24T15:06:51;9.90;99.90
74822;DHT22;63353;48.702;8.884;2023-04-24T15:09:17;9.70;99.90
74822;DHT22;63353;48.702;8.884;2023-04-24T15:11:42;9.50;99.90
74822;DHT22;63353;48.702;8.884;2023-04-24T15:14:08;9.40;99.90
74822;DHT22;63353;48.702;8.884;2023-04-24T15:16:34;9.40;99.90
74822;DHT22;63353;48.702;8.884;2023-04-24T15:18:59;9.40;99.90
74822;DHT22;63353;48.702;8.884;2023-04-24T15:21:28;9.40;99.90
74822;DHT22;63353;48.702;8.884;2023-04-24T15:23:57;9.50;99.90
74822;DHT22;63353;48.702;8.884;2023-04-24T15:26:23;9.60;99.90
74822;DHT22;63353;48.702;8.884;2023-04-24T15:28:51;9.60;99.90
74822;DHT22;63353;48.702;8.884;2023-04-24T15:31:23;9.80;99.90
74822;DHT22;63353;48.702;8.884;2023-04-24T15:33:52;9.90;99.90
74822;DHT22;63353;48.702;8.884;2023-04-24T15:36:18;10.00;99.90
74822;DHT22;63353;48.702;8.884;2023-04-24T15:38:48;10.10;99.90
74822;DHT22;63353;48.702;8.884;2023-04-24T15:41:14;10.40;99.90
74822;DHT22;63353;48.702;8.884;2023-04-24T15:43:40;11.50;99.90
74822;DHT22;63353;48.702;8.884;2023-04-24T15:46:07;13.60;99.90
74822;DHT22;63353;48.702;8.884;2023-04-24T15:48:33;15.80;99.90
74822;DHT22;63353;48.702;8.884;2023-04-24T15:50:59;17.70;99.90
74822;DHT22;63353;48.702;8.884;2023-04-24T15:53:28;17.70;99.90
74822;DHT22;63353;48.702;8.884;2023-04-24T15:56:00;16.00;99.90
74822;DHT22;63353;48.702;8.884;2023-04-24T15:58:29;15.40;99.90
74822;DHT22;63353;48.702;8.884;2023-04-24T16:00:57;14.60;99.90
74822;DHT22;63353;48.702;8.884;2023-04-24T16:03:23;13.30;99.90
74822;DHT22;63353;48.702;8.884;2023-04-24T16:05:49;12.40;99.90
74822;DHT22;63353;48.702;8.884;2023-04-24T16:08:20;11.80;99.90
74822;DHT22;63353;48.702;8.884;2023-04-24T16:10:46;11.50;99.90
74822;DHT22;63353;48.702;8.884;2023-04-24T16:13:13;11.20;99.90